Time;durP1;ratioP1;P1;durP2;ratioP2;P2;SDS_P1;SDS_P2;PMS_P1;PMS_P2;Temp;Humidity;BMP_temperature;BMP_pressure;BME280_temperature;BME280_humidity;BME280_pressure;Samples;Min_cycle;Max_cycle;Signal;HPM_P1;HPM_P2
2022/09/08 00:00:58;;;;;;;;;;;;;;;10.89;100.00;100627.31;3058288;19;19978;-49
2022/09/08 00:02:05;;;;;;;;;;;;;;;10.89;100.00;100638.00;3056966;19;19953;-46
2022/09/08 00:03:08;;;;;;;;;;;;;;;10.88;100.00;100629.13;3058072;19;19923;-49
2022/09/08 00:04:13;;;;;;;;;;;;;;;10.86;100.00;100628.38;3057965;19;20357;-46
2022/09/08 00:05:15;;;;;;;;;;;;;;;10.84;100.00;100616.94;3058519;19;19942;-46
2022/09/08 00:06:20;;;;;;;;;;;;;;;10.83;100.00;100623.22;3057037;19;19923;-51
2022/09/08 00:07:22;;;;;;;;;;;;;;;10.72;100.00;100609.66;3057558;19;19939;-48
2022/09/08 00:08:27;;;;;;;;;;;;;;;10.76;100.00;100624.53;3057799;19;19944;-47
2022/09/08 00:09:29;;;;;;;;;;;;;;;10.73;100.00;100622.06;3058591;19;19971;-46
2022/09/08 00:10:34;;;;;;;;;;;;;;;10.72;100.00;100631.03;3057978;19;19915;-47
2022/09/08 00:11:38;;;;;;;;;;;;;;;10.72;100.00;100623.00;3058412;19;19923;-47
2022/09/08 00:12:41;;;;;;;;;;;;;;;10.69;100.00;100623.19;3056875;19;19918;-46
2022/09/08 00:13:46;;;;;;;;;;;;;;;10.68;100.00;100630.34;3057343;19;19919;-51
2022/09/08 00:14:48;;;;;;;;;;;;;;;10.67;100.00;100630.41;3057335;19;19923;-49
2022/09/08 00:15:52;;;;;;;;;;;;;;;10.67;100.00;100630.41;3056870;19;20018;-48
2022/09/08 00:16:54;;;;;;;;;;;;;;;10.63;100.00;100634.22;3057174;19;19919;-47
2022/09/08 00:17:59;;;;;;;;;;;;;;;10.63;100.00;100634.22;3057237;19;20031;-47
2022/09/08 00:19:04;;;;;;;;;;;;;;;10.62;100.00;100635.19;3057138;19;20226;-49
2022/09/08 00:20:07;;;;;;;;;;;;;;;10.60;100.00;100637.94;3057419;19;19942;-48
2022/09/08 00:21:11;;;;;;;;;;;;;;;10.57;100.00;100632.78;3057539;19;20371;-47
2022/09/08 00:22:13;;;;;;;;;;;;;;;10.56;100.00;100638.22;3057047;19;19923;-49
2022/09/08 00:23:18;;;;;;;;;;;;;;;10.55;100.00;100644.50;3057356;19;19930;-45
2022/09/08 00:24:22;;;;;;;;;;;;;;;10.55;100.00;100639.16;3058199;19;19990;-49
2022/09/08 00:25:24;;;;;;;;;;;;;;;10.53;100.00;100635.72;3058076;19;19947;-46
2022/09/08 00:26:29;;;;;;;;;;;;;;;10.52;100.00;100642.84;3057524;19;20286;-48
2022/09/08 00:27:31;;;;;;;;;;;;;;;10.51;100.00;100642.94;3057767;19;20377;-48
2022/09/08 00:28:35;;;;;;;;;;;;;;;10.50;100.00;100642.13;3057931;19;19923;-48
2022/09/08 00:29:37;;;;;;;;;;;;;;;10.50;100.00;100635.91;3057931;19;19943;-47
2022/09/08 00:30:42;;;;;;;;;;;;;;;10.50;100.00;100641.25;3058044;19;19938;-48
2022/09/08 00:31:44;;;;;;;;;;;;;;;10.49;100.00;100634.19;3057590;19;19927;-50
2022/09/08 00:32:48;;;;;;;;;;;;;;;10.50;100.00;100642.13;3057978;19;19919;-46
2022/09/08 00:33:50;;;;;;;;;;;;;;;10.50;100.00;100646.59;3058097;19;19930;-50
2022/09/08 00:34:55;;;;;;;;;;;;;;;10.50;100.00;100646.59;3058014;19;19927;-46
2022/09/08 00:35:59;;;;;;;;;;;;;;;10.50;100.00;100641.25;3057765;19;19926;-47
2022/09/08 00:37:02;;;;;;;;;;;;;;;10.52;100.00;100637.53;3057700;19;19931;-47
2022/09/08 00:38:06;;;;;;;;;;;;;;;10.54;100.00;100632.09;3057791;19;19923;-47
2022/09/08 00:39:08;;;;;;;;;;;;;;;10.55;100.00;100628.47;3057112;19;20341;-46
2022/09/08 00:40:13;;;;;;;;;;;;;;;10.54;100.00;100621.41;3056423;19;19936;-49
2022/09/08 00:41:15;;;;;;;;;;;;;;;10.54;100.00;100626.75;3056626;19;20376;-48
2022/09/08 00:42:23;;;;;;;;;;;;;;;10.52;100.00;100620.66;3056867;19;19930;-47
2022/09/08 00:43:38;;;;;;;;;;;;;;;10.51;100.00;100621.59;3057910;19;19922;-46
2022/09/08 00:44:48;;;;;;;;;;;;;;;10.52;100.00;100624.19;3057711;19;20255;-51
2022/09/08 00:45:49;;;;;;;;;;;;;;;10.52;100.00;100617.97;3056263;19;20934;-44
2022/09/08 00:46:54;;;;;;;;;;;;;;;10.51;100.00;100616.25;3057496;19;19990;-49
2022/09/08 00:48:00;;;;;;;;;;;;;;;10.52;100.00;100617.97;3056642;19;19939;-47
2022/09/08 00:49:06;;;;;;;;;;;;;;;10.54;100.00;100626.75;3056959;19;20362;-48
2022/09/08 00:50:09;;;;;;;;;;;;;;;10.55;100.00;100626.66;3057572;19;20611;-47
2022/09/08 00:51:14;;;;;;;;;;;;;;;10.56;100.00;100622.19;3057600;19;19923;-48
2022/09/08 00:52:15;;;;;;;;;;;;;;;10.55;100.00;100617.81;3056491;19;20338;-46
2022/09/08 00:53:20;;;;;;;;;;;;;;;10.61;100.00;100618.31;3056849;19;19987;-49
2022/09/08 00:54:22;;;;;;;;;;;;;;;10.62;100.00;100614.69;3056701;19;19980;-48
2022/09/08 00:55:26;;;;;;;;;;;;;;;10.68;100.00;100608.13;3057542;19;19926;-47
2022/09/08 00:56:28;;;;;;;;;;;;;;;10.65;100.00;100606.50;3056389;19;20019;-47
2022/09/08 00:57:33;;;;;;;;;;;;;;;10.70;100.00;100608.88;3056979;19;19923;-44
2022/09/08 00:58:36;;;;;;;;;;;;;;;10.74;100.00;100610.44;3056530;19;20659;-50
2022/09/08 00:59:40;;;;;;;;;;;;;;;10.74;100.00;100610.44;3057589;19;19990;-45
2022/09/08 01:00:42;;;;;;;;;;;;;;;10.71;100.00;100610.63;3057378;19;19933;-47
2022/09/08 01:01:47;;;;;;;;;;;;;;;10.80;100.00;100607.38;3056799;19;19922;-48
2022/09/08 01:02:49;;;;;;;;;;;;;;;10.82;100.00;100606.34;3055928;19;19934;-47
2022/09/08 01:03:55;;;;;;;;;;;;;;;10.79;100.00;100603.84;3057880;19;19923;-48
2022/09/08 01:05:07;;;;;;;;;;;;;;;10.87;100.00;100606.03;3057363;19;19923;-49
2022/09/08 01:06:14;;;;;;;;;;;;;;;10.88;100.00;100601.56;3056679;19;20008;-49
2022/09/08 01:12:46;;;;;;;;;;;;;;;10.78;100.00;100609.28;3056478;19;19982;-46
2022/09/08 01:13:48;;;;;;;;;;;;;;;10.75;100.00;100614.78;3056824;19;20040;-46
2022/09/08 01:14:55;;;;;;;;;;;;;;;10.71;100.00;100605.28;3056524;19;19915;-50
2022/09/08 01:15:57;;;;;;;;;;;;;;;10.68;100.00;100614.31;3057725;19;19978;-46
2022/09/08 01:17:12;;;;;;;;;;;;;;;10.64;100.00;100612.78;3056270;19;20051;-48
2022/09/08 01:18:14;;;;;;;;;;;;;;;10.61;100.00;100622.78;3056814;19;19934;-51
2022/09/08 01:19:28;;;;;;;;;;;;;;;10.56;100.00;100614.19;3057018;19;19927;-48
2022/09/08 01:20:46;;;;;;;;;;;;;;;10.51;100.00;100616.25;3056527;19;19969;-46
2022/09/08 01:22:06;;;;;;;;;;;;;;;10.46;100.00;100614.75;3056090;19;19923;-50
2022/09/08 01:23:16;;;;;;;;;;;;;;;10.41;100.00;100614.13;3055471;19;20306;-47
2022/09/08 01:24:28;;;;;;;;;;;;;;;10.38;100.00;100602.81;3057351;19;19990;-49
2022/09/08 01:25:48;;;;;;;;;;;;;;;10.33;100.00;100603.06;3056214;19;19919;-45
2022/09/08 01:27:13;;;;;;;;;;;;;;;10.27;100.00;100600.75;3056245;19;19959;-50
2022/09/08 01:28:26;;;;;;;;;;;;;;;10.23;100.00;100593.91;3056245;19;19974;-46
2022/09/08 01:29:31;;;;;;;;;;;;;;;10.21;100.00;100602.94;3056313;19;20039;-45
2022/09/08 01:30:33;;;;;;;;;;;;;;;10.19;100.00;100592.34;3057238;19;19974;-50
2022/09/08 01:31:38;;;;;;;;;;;;;;;10.11;100.00;100587.44;3055748;19;19986;-48
2022/09/08 01:32:41;;;;;;;;;;;;;;;10.15;100.00;100598.75;3056299;19;19922;-47
2022/09/08 01:33:45;;;;;;;;;;;;;;;10.13;100.00;100595.34;3055894;19;20671;-47
2022/09/08 01:34:47;;;;;;;;;;;;;;;10.14;100.00;100597.06;3057371;19;19943;-50
2022/09/08 01:35:51;;;;;;;;;;;;;;;10.13;100.00;100600.69;3056785;19;20354;-48
2022/09/08 01:36:56;;;;;;;;;;;;;;;10.12;100.00;100598.97;3057186;19;19951;-47
2022/09/08 01:38:00;;;;;;;;;;;;;;;10.10;100.00;100603.53;3055907;19;19946;-50
2022/09/08 01:39:02;;;;;;;;;;;;;;;9.98;100.00;100590.91;3055633;19;19995;-49
2022/09/08 01:40:07;;;;;;;;;;;;;;;10.07;100.00;100607.22;3056425;19;19915;-48
2022/09/08 01:41:09;;;;;;;;;;;;;;;10.06;100.00;100616.16;3056266;19;19954;-50
2022/09/08 01:42:13;;;;;;;;;;;;;;;10.05;100.00;100608.25;3056780;19;19918;-46
2022/09/08 01:43:15;;;;;;;;;;;;;;;10.03;100.00;100604.81;3056348;19;19923;-50
2022/09/08 01:44:20;;;;;;;;;;;;;;;10.01;100.00;100606.72;3056697;19;19944;-47
2022/09/08 01:45:23;;;;;;;;;;;;;;;10.00;100.00;100599.66;3057165;19;20015;-50
2022/09/08 01:46:27;;;;;;;;;;;;;;;10.00;100.00;100610.34;3056694;19;19919;-48
2022/09/08 01:47:30;;;;;;;;;;;;;;;10.01;100.00;100606.72;3056690;19;20425;-47
2022/09/08 01:48:35;;;;;;;;;;;;;;;10.01;100.00;100617.38;3056465;19;19932;-48
2022/09/08 01:49:39;;;;;;;;;;;;;;;9.99;100.00;100613.94;3056817;19;19923;-50
2022/09/08 01:50:41;;;;;;;;;;;;;;;9.99;100.00;100608.63;3056574;19;20338;-48
2022/09/08 01:51:46;;;;;;;;;;;;;;;9.96;100.00;100609.63;3056837;19;19982;-50
2022/09/08 01:52:48;;;;;;;;;;;;;;;9.96;100.00;100606.97;3056848;19;19922;-46
2022/09/08 01:53:52;;;;;;;;;;;;;;;9.96;100.00;100619.44;3056724;19;19926;-48
2022/09/08 01:54:54;;;;;;;;;;;;;;;9.94;100.00;100605.34;3057068;19;19919;-47
2022/09/08 01:55:59;;;;;;;;;;;;;;;9.94;100.00;100602.66;3056696;19;19922;-45
2022/09/08 01:57:00;;;;;;;;;;;;;;;9.92;100.00;100604.56;3056231;19;19918;-47
2022/09/08 01:58:05;;;;;;;;;;;;;;;9.92;100.00;100607.22;3054456;19;20087;-46
2022/09/08 01:59:07;;;;;;;;;;;;;;;9.91;100.00;100594.84;3056652;19;19982;-50
2022/09/08 02:00:11;;;;;;;;;;;;;;;9.92;100.00;100601.91;3056727;19;19974;-50
2022/09/08 02:01:13;;;;;;;;;;;;;;;9.93;100.00;100598.28;3056388;19;19926;-51
2022/09/08 02:02:18;;;;;;;;;;;;;;;9.96;100.00;100600.78;3056471;19;20285;-46
2022/09/08 02:03:20;;;;;;;;;;;;;;;9.97;100.00;100600.69;3055852;19;20344;-50
2022/09/08 02:04:24;;;;;;;;;;;;;;;10.01;100.00;100591.59;3056832;19;19919;-45
2022/09/08 02:05:26;;;;;;;;;;;;;;;10.03;100.00;100588.81;3056581;19;20785;-48
2022/09/08 02:06:30;;;;;;;;;;;;;;;10.07;100.00;100587.69;3056305;19;19918;-46
2022/09/08 02:07:33;;;;;;;;;;;;;;;10.14;100.00;100591.75;3056545;19;19974;-48
2022/09/08 02:08:37;;;;;;;;;;;;;;;10.18;100.00;100595.97;3056141;19;20333;-48
2022/09/08 02:09:39;;;;;;;;;;;;;;;10.22;100.00;100593.97;3056391;19;19923;-49
2022/09/08 02:10:44;;;;;;;;;;;;;;;10.27;100.00;100595.41;3056453;19;20544;-51
2022/09/08 02:11:48;;;;;;;;;;;;;;;10.32;100.00;100595.16;3056207;19;20253;-47
2022/09/08 02:12:53;;;;;;;;;;;;;;;10.34;100.00;100594.13;3056725;19;19927;-46
2022/09/08 02:13:54;;;;;;;;;;;;;;;10.35;100.00;100601.19;3056366;19;20693;-46
2022/09/08 02:14:59;;;;;;;;;;;;;;;10.39;100.00;100602.69;3056304;19;20333;-48
2022/09/08 02:16:02;;;;;;;;;;;;;;;10.37;100.00;100595.75;3056405;19;19926;-48
2022/09/08 02:17:06;;;;;;;;;;;;;;;10.40;100.00;100600.88;3056645;19;20000;-47
2022/09/08 02:18:08;;;;;;;;;;;;;;;10.42;100.00;100597.19;3055960;19;19993;-46
2022/09/08 02:19:13;;;;;;;;;;;;;;;10.42;100.00;100597.19;3056424;19;19978;-47
2022/09/08 02:20:15;;;;;;;;;;;;;;;10.46;100.00;100603.22;3056124;19;19935;-49
2022/09/08 02:21:20;;;;;;;;;;;;;;;10.48;100.00;100605.78;3055309;19;19989;-46
2022/09/08 02:22:22;;;;;;;;;;;;;;;10.49;100.00;100602.19;3055413;19;20028;-48
2022/09/08 02:23:27;;;;;;;;;;;;;;;10.51;100.00;100606.44;3055752;19;20278;-46
2022/09/08 02:24:32;;;;;;;;;;;;;;;10.54;100.00;100606.28;3056412;19;20018;-50
2022/09/08 02:25:34;;;;;;;;;;;;;;;10.58;100.00;100613.16;3056324;19;19919;-48
2022/09/08 02:26:40;;;;;;;;;;;;;;;10.61;100.00;100617.47;3055373;19;20367;-49
2022/09/08 02:27:42;;;;;;;;;;;;;;;10.61;100.00;100621.00;3055474;19;20018;-49
2022/09/08 02:28:47;;;;;;;;;;;;;;;10.62;100.00;100624.50;3056072;19;20452;-49
2022/09/08 02:29:49;;;;;;;;;;;;;;;10.62;100.00;100621.84;3056243;19;19927;-45
2022/09/08 02:30:54;;;;;;;;;;;;;;;10.59;100.00;100620.22;3056042;19;19914;-45
2022/09/08 02:31:58;;;;;;;;;;;;;;;10.55;100.00;100617.81;3056037;19;19947;-47
2022/09/08 02:33:01;;;;;;;;;;;;;;;10.54;100.00;100618.75;3056366;19;20359;-47
2022/09/08 02:34:06;;;;;;;;;;;;;;;10.49;100.00;100624.38;3056141;19;19982;-52
2022/09/08 02:35:08;;;;;;;;;;;;;;;10.44;100.00;100619.31;3056465;19;20387;-48
2022/09/08 02:36:13;;;;;;;;;;;;;;;10.40;100.00;100628.44;3055653;19;19926;-46
2022/09/08 02:37:14;;;;;;;;;;;;;;;10.39;100.00;100628.50;3056036;19;19996;-48
2022/09/08 02:38:19;;;;;;;;;;;;;;;10.36;100.00;100634.91;3055806;19;20277;-49
2022/09/08 02:39:21;;;;;;;;;;;;;;;10.35;100.00;100632.31;3056148;19;19919;-47
2022/09/08 02:40:25;;;;;;;;;;;;;;;10.33;100.00;100629.75;3056187;19;19926;-45
2022/09/08 02:41:27;;;;;;;;;;;;;;;10.30;100.00;100624.59;3055411;19;20094;-48
2022/09/08 02:42:32;;;;;;;;;;;;;;;10.27;100.00;100619.41;3055241;19;19942;-47
2022/09/08 02:43:34;;;;;;;;;;;;;;;10.25;100.00;100616.00;3055176;19;19918;-47
2022/09/08 02:44:38;;;;;;;;;;;;;;;10.23;100.00;100612.56;3055933;19;19918;-45
2022/09/08 02:45:40;;;;;;;;;;;;;;;10.22;100.00;100616.19;3056019;19;19927;-50
2022/09/08 02:46:45;;;;;;;;;;;;;;;10.23;100.00;100615.22;3056083;19;19930;-49
2022/09/08 02:47:47;;;;;;;;;;;;;;;10.21;100.00;100609.13;3055895;19;20763;-48
2022/09/08 02:48:51;;;;;;;;;;;;;;;10.22;100.00;100618.84;3056123;19;20021;-48
2022/09/08 02:49:53;;;;;;;;;;;;;;;10.24;100.00;100614.28;3055991;19;19934;-48
2022/09/08 02:51:00;;;;;;;;;;;;;;;10.26;100.00;100616.88;3055535;19;20293;-46
2022/09/08 02:52:02;;;;;;;;;;;;;;;10.26;100.00;100612.41;3055726;19;19978;-47
2022/09/08 02:53:07;;;;;;;;;;;;;;;10.26;100.00;100616.88;3055670;19;20607;-48
2022/09/08 02:54:08;;;;;;;;;;;;;;;10.23;100.00;100612.56;3056093;19;19923;-51
2022/09/08 02:55:13;;;;;;;;;;;;;;;10.21;100.00;100608.25;3055873;19;19922;-48
2022/09/08 02:56:15;;;;;;;;;;;;;;;10.21;100.00;100611.78;3056134;19;19931;-48
2022/09/08 02:57:20;;;;;;;;;;;;;;;10.19;100.00;100613.69;3055669;19;19919;-47
2022/09/08 02:58:22;;;;;;;;;;;;;;;10.17;100.00;100612.88;3056038;19;19934;-44
2022/09/08 02:59:26;;;;;;;;;;;;;;;10.13;100.00;100606.03;3055610;19;20020;-44
2022/09/08 03:00:32;;;;;;;;;;;;;;;10.09;100.00;100615.13;3056066;19;19978;-49
2022/09/08 03:01:36;;;;;;;;;;;;;;;10.03;100.00;100610.13;3055631;19;19923;-48
2022/09/08 03:02:39;;;;;;;;;;;;;;;9.98;100.00;100599.75;3055905;19;20606;-48
2022/09/08 03:03:43;;;;;;;;;;;;;;;9.94;100.00;100600.00;3055831;19;19982;-47
2022/09/08 03:04:51;;;;;;;;;;;;;;;9.90;100.00;100606.47;3056235;19;19934;-50
2022/09/08 03:05:55;;;;;;;;;;;;;;;9.86;100.00;100597.78;3055421;19;19996;-47
2022/09/08 03:06:58;;;;;;;;;;;;;;;9.86;100.00;100599.59;3056052;19;19996;-46
2022/09/08 03:08:03;;;;;;;;;;;;;;;9.85;100.00;100605.88;3055775;19;19994;-45
2022/09/08 03:09:05;;;;;;;;;;;;;;;9.82;100.00;100595.38;3054654;19;19977;-48
2022/09/08 03:10:10;;;;;;;;;;;;;;;9.79;100.00;100596.41;3054787;19;19946;-45
2022/09/08 03:11:12;;;;;;;;;;;;;;;9.77;100.00;100602.78;3055705;19;19930;-49
2022/09/08 03:12:16;;;;;;;;;;;;;;;9.75;100.00;100609.06;3055496;19;19986;-49
2022/09/08 03:13:18;;;;;;;;;;;;;;;9.73;100.00;100600.28;3055934;19;19979;-46
2022/09/08 03:14:23;;;;;;;;;;;;;;;9.71;100.00;100599.50;3055413;19;20262;-44
2022/09/08 03:15:25;;;;;;;;;;;;;;;9.71;100.00;100602.19;3055762;19;20351;-45
2022/09/08 03:16:30;;;;;;;;;;;;;;;9.70;100.00;100603.13;3055344;19;20312;-51
2022/09/08 03:17:32;;;;;;;;;;;;;;;9.67;100.00;100603.28;3055856;19;20346;-47
2022/09/08 03:18:37;;;;;;;;;;;;;;;9.67;100.00;100599.75;3054579;19;19923;-44
2022/09/08 03:19:38;;;;;;;;;;;;;;;9.68;100.00;100597.00;3054896;19;19967;-48
2022/09/08 03:20:44;;;;;;;;;;;;;;;9.68;100.00;100582.81;3054942;19;19926;-46
2022/09/08 03:21:46;;;;;;;;;;;;;;;9.67;100.00;100581.97;3055689;19;20368;-46
2022/09/08 03:22:51;;;;;;;;;;;;;;;9.66;100.00;100592.75;3055380;19;19926;-49
2022/09/08 03:23:53;;;;;;;;;;;;;;;9.63;100.00;100587.56;3055476;19;20306;-52
2022/09/08 03:24:58;;;;;;;;;;;;;;;9.61;100.00;100585.00;3054699;19;19923;-47
2022/09/08 03:26:00;;;;;;;;;;;;;;;9.61;100.00;100582.31;3055609;19;19946;-50
2022/09/08 03:27:05;;;;;;;;;;;;;;;9.61;100.00;100582.31;3055558;19;19943;-48
2022/09/08 03:28:07;;;;;;;;;;;;;;;9.59;100.00;100584.22;3055338;19;20346;-52
2022/09/08 03:29:12;;;;;;;;;;;;;;;9.60;100.00;100579.75;3055015;19;19990;-46
2022/09/08 03:30:14;;;;;;;;;;;;;;;9.62;100.00;100578.72;3054625;19;19923;-51
2022/09/08 03:31:19;;;;;;;;;;;;;;;9.60;100.00;100580.59;3055285;19;20004;-48
2022/09/08 03:32:22;;;;;;;;;;;;;;;9.62;100.00;100593.84;3055474;19;19927;-47
2022/09/08 03:33:28;;;;;;;;;;;;;;;9.61;100.00;100587.66;3055613;19;19995;-49
2022/09/08 03:34:30;;;;;;;;;;;;;;;9.66;100.00;100582.91;3055429;19;19919;-46
2022/09/08 03:35:35;;;;;;;;;;;;;;;9.67;100.00;100581.97;3055192;19;20372;-48
2022/09/08 03:36:39;;;;;;;;;;;;;;;9.75;100.00;100593.06;3055510;19;20359;-47
2022/09/08 03:37:41;;;;;;;;;;;;;;;9.80;100.00;100587.47;3055565;19;19923;-49
2022/09/08 03:38:46;;;;;;;;;;;;;;;9.86;100.00;100596.94;3055390;19;19930;-45
2022/09/08 03:39:48;;;;;;;;;;;;;;;9.89;100.00;100602.09;3055587;19;20474;-45
2022/09/08 03:40:52;;;;;;;;;;;;;;;9.89;100.00;100591.44;3054459;19;19954;-47
2022/09/08 03:41:54;;;;;;;;;;;;;;;9.88;100.00;100598.56;3055535;19;19942;-49
2022/09/08 03:42:59;;;;;;;;;;;;;;;9.86;100.00;100599.59;3055301;19;19998;-49
2022/09/08 03:44:01;;;;;;;;;;;;;;;9.82;100.00;100595.38;3055537;19;20337;-44
2022/09/08 03:45:11;;;;;;;;;;;;;;;9.80;100.00;100591.94;3054682;19;19919;-49
2022/09/08 03:46:13;;;;;;;;;;;;;;;9.77;100.00;100595.66;3056076;19;19927;-48
2022/09/08 03:47:17;;;;;;;;;;;;;;;9.75;100.00;100595.72;3055165;19;19915;-47
2022/09/08 03:48:19;;;;;;;;;;;;;;;9.71;100.00;100588.84;3054716;19;20383;-46
2022/09/08 03:49:23;;;;;;;;;;;;;;;9.72;100.00;100590.56;3054279;19;19939;-49
2022/09/08 03:50:25;;;;;;;;;;;;;;;9.70;100.00;100594.25;3055432;19;19923;-50
2022/09/08 03:51:29;;;;;;;;;;;;;;;9.67;100.00;100587.28;3055103;19;19979;-45
2022/09/08 03:52:31;;;;;;;;;;;;;;;9.64;100.00;100592.81;3055651;19;19994;-46
2022/09/08 03:53:36;;;;;;;;;;;;;;;9.60;100.00;100591.25;3054740;19;19923;-44
2022/09/08 03:54:47;;;;;;;;;;;;;;;9.57;100.00;100591.41;3055559;19;19922;-48
2022/09/08 03:55:51;;;;;;;;;;;;;;;9.50;100.00;100589.19;3056595;19;19923;-47
2022/09/08 03:56:53;;;;;;;;;;;;;;;9.44;100.00;100589.53;3056329;19;20377;-48
2022/09/08 03:57:57;;;;;;;;;;;;;;;9.42;100.00;100592.25;3055233;19;19930;-50
2022/09/08 03:58:59;;;;;;;;;;;;;;;9.39;100.00;100592.44;3055482;19;20583;-47
2022/09/08 04:00:03;;;;;;;;;;;;;;;9.37;100.00;100583.69;3056531;19;19923;-46
2022/09/08 04:01:13;;;;;;;;;;;;;;;9.38;100.00;100585.41;3055341;19;20337;-46
2022/09/08 04:02:18;;;;;;;;;;;;;;;9.38;100.00;100586.28;3054948;19;20316;-47
2022/09/08 04:03:20;;;;;;;;;;;;;;;9.36;100.00;100584.63;3055358;19;20609;-48
2022/09/08 04:04:25;;;;;;;;;;;;;;;9.39;100.00;100589.78;3054671;19;19935;-46
2022/09/08 04:05:27;;;;;;;;;;;;;;;9.39;100.00;100577.34;3053798;19;19942;-47
2022/09/08 04:06:31;;;;;;;;;;;;;;;9.41;100.00;100579.91;3053702;19;20361;-46
2022/09/08 04:07:34;;;;;;;;;;;;;;;9.43;100.00;100586.00;3054443;19;19930;-48
2022/09/08 04:08:38;;;;;;;;;;;;;;;9.28;100.00;100554.91;3053591;19;20330;-49
2022/09/08 04:09:41;;;;;;;;;;;;;;;9.46;100.00;100583.16;3054724;19;19976;-48
2022/09/08 04:10:46;;;;;;;;;;;;;;;9.47;100.00;100584.88;3052883;19;19919;-48
2022/09/08 04:11:48;;;;;;;;;;;;;;;9.51;100.00;100585.59;3053458;19;20402;-48
2022/09/08 04:12:52;;;;;;;;;;;;;;;9.54;100.00;100583.59;3053308;19;20342;-49
2022/09/08 04:13:54;;;;;;;;;;;;;;;9.62;100.00;100589.38;3053146;19;19923;-48
2022/09/08 04:14:58;;;;;;;;;;;;;;;9.69;100.00;100588.06;3054894;19;20086;-49
2022/09/08 04:16:02;;;;;;;;;;;;;;;9.77;100.00;100587.66;3053637;19;19919;-48
2022/09/08 04:17:07;;;;;;;;;;;;;;;9.98;100.00;100588.22;3055604;19;20189;-47
2022/09/08 04:18:09;;;;;;;;;;;;;;;10.23;100.00;100591.22;3054813;19;19994;-47
2022/09/08 04:19:15;;;;;;;;;;;;;;;10.30;100.00;100576.56;3055482;19;19983;-45
2022/09/08 04:20:19;;;;;;;;;;;;;;;10.45;100.00;100590.81;3055027;19;20547;-47
2022/09/08 04:21:21;;;;;;;;;;;;;;;10.58;100.00;100591.81;3056732;19;19923;-46
2022/09/08 04:22:26;;;;;;;;;;;;;;;10.70;100.00;100587.53;3057801;19;19938;-46
2022/09/08 04:23:28;;;;;;;;;;;;;;;10.75;100.00;100596.09;3058669;19;19950;-49
2022/09/08 04:24:32;;;;;;;;;;;;;;;10.70;100.00;100590.22;3058103;19;20332;-46
2022/09/08 04:25:34;;;;;;;;;;;;;;;10.64;100.00;100590.56;3057358;19;19950;-47
2022/09/08 04:26:38;;;;;;;;;;;;;;;10.61;100.00;100593.44;3058116;19;19923;-49
2022/09/08 04:27:41;;;;;;;;;;;;;;;10.62;100.00;100592.50;3058587;19;19927;-46
2022/09/08 04:28:46;;;;;;;;;;;;;;;10.62;100.00;100581.81;3058021;19;19988;-46
2022/09/08 04:29:47;;;;;;;;;;;;;;;10.67;100.00;100590.38;3058129;19;19923;-46
2022/09/08 04:30:52;;;;;;;;;;;;;;;10.69;100.00;100577.81;3058550;19;19931;-46
2022/09/08 04:31:54;;;;;;;;;;;;;;;10.74;100.00;100575.72;3058324;19;19919;-47
2022/09/08 04:32:58;;;;;;;;;;;;;;;10.78;100.00;100586.13;3057575;19;19935;-45
2022/09/08 04:34:00;;;;;;;;;;;;;;;10.81;100.00;100580.59;3058260;19;20318;-44
2022/09/08 04:35:05;;;;;;;;;;;;;;;10.86;100.00;100580.31;3057691;19;21316;-51
2022/09/08 04:36:07;;;;;;;;;;;;;;;10.86;100.00;100580.31;3058162;19;19944;-48
2022/09/08 04:37:28;;;;;;;;;;;;;;;10.90;100.00;100576.50;3057000;19;20326;-45
2022/09/08 04:38:30;;;;;;;;;;;;;;;10.89;100.00;100574.78;3057395;19;20309;-49
2022/09/08 04:39:35;;;;;;;;;;;;;;;10.90;100.00;100576.50;3057600;19;19931;-50
2022/09/08 04:40:37;;;;;;;;;;;;;;;10.95;100.00;100579.75;3054811;19;20352;-47
2022/09/08 04:41:41;;;;;;;;;;;;;;;10.97;100.00;100580.53;3057394;19;19926;-46
2022/09/08 04:42:44;;;;;;;;;;;;;;;11.02;100.00;100588.22;3056924;19;19918;-47
2022/09/08 04:43:49;;;;;;;;;;;;;;;11.10;100.00;100588.63;3058642;19;19922;-49
2022/09/08 04:44:53;;;;;;;;;;;;;;;11.11;100.00;100580.50;3058524;19;19922;-47
2022/09/08 04:45:59;;;;;;;;;;;;;;;11.16;100.00;100583.75;3057452;19;19990;-46
2022/09/08 04:47:03;;;;;;;;;;;;;;;11.26;100.00;100583.16;3059274;19;19923;-46
2022/09/08 04:48:05;;;;;;;;;;;;;;;11.32;100.00;100582.81;3057177;19;19979;-47
2022/09/08 04:49:10;;;;;;;;;;;;;;;11.38;100.00;100585.06;3057443;19;19935;-45
2022/09/08 04:50:12;;;;;;;;;;;;;;;11.45;100.00;100586.41;3056638;19;19915;-46
2022/09/08 04:51:18;;;;;;;;;;;;;;;11.53;100.00;100592.13;3056525;19;19926;-46
2022/09/08 04:52:24;;;;;;;;;;;;;;;11.62;100.00;100591.53;3057628;19;19948;-48
2022/09/08 04:53:35;;;;;;;;;;;;;;;11.68;100.00;100596.50;3056889;19;19923;-46
2022/09/08 04:54:37;;;;;;;;;;;;;;;11.70;100.00;100593.72;3056444;19;19990;-48
2022/09/08 04:55:42;;;;;;;;;;;;;;;11.73;100.00;100590.81;3057411;19;19923;-50
2022/09/08 04:56:44;;;;;;;;;;;;;;;11.75;100.00;100589.81;3056349;19;20004;-47
2022/09/08 04:57:48;;;;;;;;;;;;;;;11.88;100.00;100580.03;3055975;19;19988;-47
2022/09/08 04:58:50;;;;;;;;;;;;;;;11.97;100.00;100591.94;3057032;19;19924;-48
2022/09/08 04:59:58;;;;;;;;;;;;;;;12.05;100.00;100586.09;3056256;19;19926;-46
2022/09/08 05:01:20;;;;;;;;;;;;;;;12.16;100.00;100599.63;3057898;19;19919;-49
2022/09/08 05:02:24;;;;;;;;;;;;;;;12.24;100.00;100597.28;3019142;19;19942;-48
2022/09/08 05:03:26;;;;;;;;;;;;;;;12.31;100.00;100595.94;3056307;19;19942;-48
2022/09/08 05:04:30;;;;;;;;;;;;;;;12.41;100.00;100602.38;3054739;19;19918;-46
2022/09/08 05:05:35;;;;;;;;;;;;;;;12.54;100.00;100603.25;3056234;19;20334;-49
2022/09/08 05:06:39;;;;;;;;;;;;;;;12.64;100.00;100598.13;3055749;19;20359;-46
2022/09/08 05:07:41;;;;;;;;;;;;;;;12.78;100.00;100598.06;3058569;19;19954;-46
2022/09/08 05:08:46;;;;;;;;;;;;;;;12.84;100.00;100594.06;3056176;19;20740;-45
2022/09/08 05:09:51;;;;;;;;;;;;;;;12.96;100.00;100593.22;3055590;19;19922;-48
2022/09/08 05:10:53;;;;;;;;;;;;;;;13.14;100.00;100591.09;3056513;19;19915;-50
2022/09/08 05:11:57;;;;;;;;;;;;;;;13.26;100.00;100599.16;3056728;19;19930;-50
2022/09/08 05:12:59;;;;;;;;;;;;;;;13.42;99.86;100600.72;3054317;19;19922;-48
2022/09/08 05:14:04;;;;;;;;;;;;;;;13.60;98.02;100599.41;3055321;19;19940;-49
2022/09/08 05:15:06;;;;;;;;;;;;;;;13.72;95.49;100598.53;3054915;19;19927;-48
2022/09/08 05:16:12;;;;;;;;;;;;;;;13.93;94.47;100606.81;3058220;19;19926;-48
2022/09/08 05:17:17;;;;;;;;;;;;;;;14.08;92.40;100605.69;3055893;19;20263;-49
2022/09/08 05:18:23;;;;;;;;;;;;;;;14.23;90.33;100609.94;3056457;19;19923;-47
2022/09/08 05:19:28;;;;;;;;;;;;;;;14.38;88.96;100621.31;3057194;19;19931;-48
2022/09/08 05:20:30;;;;;;;;;;;;;;;14.49;86.59;100613.34;3055768;19;20381;-48
2022/09/08 05:21:35;;;;;;;;;;;;;;;14.63;85.09;100602.41;3055823;19;19930;-51
2022/09/08 05:22:38;;;;;;;;;;;;;;;14.73;84.03;100598.03;3056970;19;19918;-47
2022/09/08 05:23:49;;;;;;;;;;;;;;;14.93;82.97;100615.31;3055960;19;19930;-47
2022/09/08 05:24:52;;;;;;;;;;;;;;;14.96;81.38;100608.84;3055675;19;19915;-46
2022/09/08 05:26:01;;;;;;;;;;;;;;;15.07;80.83;100606.19;3056485;19;19927;-47
2022/09/08 05:27:05;;;;;;;;;;;;;;;15.11;80.04;100608.50;3054902;19;19974;-51
2022/09/08 05:28:07;;;;;;;;;;;;;;;15.18;78.98;100610.72;3057349;19;20668;-47
2022/09/08 05:29:11;;;;;;;;;;;;;;;15.35;79.15;100611.06;3055110;19;19923;-50
2022/09/08 05:30:14;;;;;;;;;;;;;;;15.40;78.01;100611.56;3055076;19;19978;-51
2022/09/08 05:31:21;;;;;;;;;;;;;;;15.46;77.21;100607.53;3056033;19;19933;-51
2022/09/08 05:32:23;;;;;;;;;;;;;;;15.47;75.99;100609.25;3057578;19;20025;-46
2022/09/08 05:33:27;;;;;;;;;;;;;;;15.56;75.78;100610.38;3057220;19;20011;-46